createdAt,value
2022-09-09T00:02:18.901Z,101502.31
2022-09-09T00:04:47.493Z,101488.00
2022-09-09T00:07:24.353Z,101459.84
2022-09-09T00:09:53.688Z,101463.06
2022-09-09T00:12:32.309Z,101465.16
2022-09-09T00:15:17.327Z,101462.38
2022-09-09T00:18:03.949Z,101472.00
2022-09-09T00:20:39.581Z,101460.91
2022-09-09T00:23:25.653Z,101464.75
2022-09-09T00:26:00.146Z,101467.56
2022-09-09T00:28:27.873Z,101476.19
2022-09-09T00:30:55.430Z,101478.50
2022-09-09T00:33:24.343Z,101470.28
2022-09-09T00:35:52.897Z,101474.78
2022-09-09T00:38:24.550Z,101468.59
2022-09-09T00:40:53.158Z,101471.53
2022-09-09T00:43:33.206Z,101474.09
2022-09-09T00:46:19.211Z,101479.44
2022-09-09T00:48:45.653Z,101479.97
2022-09-09T00:51:30.319Z,101481.75
2022-09-09T00:54:09.885Z,101478.28
2022-09-09T00:56:43.084Z,101498.13
2022-09-09T00:59:30.142Z,101495.28
2022-09-09T01:01:56.807Z,101500.56
2022-09-09T01:04:29.906Z,101497.25
2022-09-09T01:07:03.476Z,101504.44
2022-09-09T01:09:39.138Z,101505.09
2022-09-09T01:12:19.299Z,101498.28
2022-09-09T01:14:49.822Z,101497.75
2022-09-09T01:17:24.470Z,101498.06
2022-09-09T01:20:03.738Z,101499.66
2022-09-09T01:22:35.654Z,101500.88
2022-09-09T01:25:20.725Z,101508.31
2022-09-09T01:27:49.189Z,101509.75
2022-09-09T01:30:16.997Z,101511.69
2022-09-09T01:32:50.825Z,101501.91
2022-09-09T01:35:20.104Z,101492.28
2022-09-09T01:37:46.466Z,101496.94
2022-09-09T01:40:12.826Z,101498.97
2022-09-09T01:42:39.142Z,101501.56
2022-09-09T01:45:05.892Z,101501.16
2022-09-09T01:47:32.209Z,101508.25
2022-09-09T01:49:59.374Z,101503.03
2022-09-09T01:52:25.880Z,101515.41
2022-09-09T01:54:52.197Z,101511.13
2022-09-09T01:57:28.815Z,101514.06
2022-09-09T01:59:58.178Z,101519.72
2022-09-09T02:02:27.471Z,101516.19
2022-09-09T02:04:57.665Z,101518.75
2022-09-09T02:07:32.049Z,101526.09
2022-09-09T02:10:02.331Z,101518.44
2022-09-09T02:12:29.398Z,101522.69
2022-09-09T02:15:01.413Z,101522.53
2022-09-09T02:17:30.396Z,101520.34
2022-09-09T02:20:08.571Z,101524.13
2022-09-09T02:22:36.376Z,101523.81
2022-09-09T02:25:04.794Z,101543.44
2022-09-09T02:27:31.101Z,101530.63
2022-09-09T02:29:59.815Z,101533.34
2022-09-09T02:32:26.302Z,101535.75
2022-09-09T02:34:56.212Z,101536.31
2022-09-09T02:37:26.054Z,101531.56
2022-09-09T02:39:52.758Z,101535.03
2022-09-09T02:42:20.095Z,101531.69
2022-09-09T02:44:46.409Z,101544.69
2022-09-09T02:47:25.369Z,101542.50
2022-09-09T02:50:09.494Z,101544.59
2022-09-09T02:52:54.669Z,101541.91
2022-09-09T02:55:37.478Z,101538.69
2022-09-09T02:58:06.980Z,101553.97
2022-09-09T03:00:33.684Z,101552.56
2022-09-09T03:02:59.995Z,101545.44
2022-09-09T03:05:27.156Z,101540.38
2022-09-09T03:07:53.463Z,101548.38
2022-09-09T03:10:20.118Z,101545.03
2022-09-09T03:12:46.423Z,101548.97
2022-09-09T03:15:12.798Z,101547.44
2022-09-09T03:17:39.122Z,101542.09
2022-09-09T03:20:05.643Z,101542.50
2022-09-09T03:22:31.945Z,101530.97
2022-09-09T03:24:58.278Z,101548.66
2022-09-09T03:27:24.677Z,101540.38
2022-09-09T03:29:53.932Z,101537.25
2022-09-09T03:32:20.434Z,101543.66
2022-09-09T03:34:50.465Z,101548.25
2022-09-09T03:37:18.599Z,101552.44
2022-09-09T03:39:45.142Z,101542.91
2022-09-09T03:42:15.161Z,101543.50
2022-09-09T03:44:42.874Z,101541.22
2022-09-09T03:47:09.302Z,101544.63
2022-09-09T03:49:35.908Z,101545.03
2022-09-09T03:52:02.347Z,101540.13
2022-09-09T03:54:28.683Z,101551.94
2022-09-09T03:56:55.045Z,101546.22
2022-09-09T03:59:22.211Z,101550.97
2022-09-09T04:01:48.572Z,101551.56
2022-09-09T04:04:15.052Z,101554.19
2022-09-09T04:06:41.402Z,101550.97
2022-09-09T04:09:07.766Z,101548.88
2022-09-09T04:11:35.082Z,101552.28
2022-09-09T04:14:01.800Z,101555.88
2022-09-09T04:16:28.140Z,101564.16
2022-09-09T04:18:54.503Z,101568.34
2022-09-09T04:21:21.170Z,101561.66
2022-09-09T04:23:47.555Z,101555.38
2022-09-09T04:26:13.921Z,101561.09
2022-09-09T04:28:40.220Z,101558.66
2022-09-09T04:31:18.983Z,101569.22
2022-09-09T04:33:45.446Z,101560.13
2022-09-09T04:36:11.766Z,101560.63
2022-09-09T04:38:38.173Z,101574.63
2022-09-09T04:41:04.670Z,101570.63
2022-09-09T04:43:31.670Z,101564.06
2022-09-09T04:45:58.782Z,101563.00
2022-09-09T04:48:26.201Z,101569.22
2022-09-09T04:51:03.278Z,101566.06
2022-09-09T04:53:29.583Z,101570.06
2022-09-09T04:56:06.646Z,101571.22
2022-09-09T04:58:33.146Z,101573.56
2022-09-09T05:01:09.814Z,101577.09
2022-09-09T05:03:36.371Z,101582.44
2022-09-09T05:06:03.995Z,101580.88
2022-09-09T05:08:30.433Z,101574.81
2022-09-09T05:10:56.727Z,101582.25
2022-09-09T05:13:23.780Z,101585.56
2022-09-09T05:15:54.278Z,101598.91
2022-09-09T05:18:20.928Z,101602.25
2022-09-09T05:20:47.259Z,101603.69
2022-09-09T05:23:14.328Z,101605.66
2022-09-09T05:25:42.646Z,101607.19
2022-09-09T05:28:08.946Z,101606.44
2022-09-09T05:30:35.285Z,101605.38
2022-09-09T05:33:01.579Z,101595.38
2022-09-09T05:35:27.926Z,101594.78
2022-09-09T05:37:54.302Z,101600.78
2022-09-09T05:40:22.399Z,101596.69
2022-09-09T05:42:48.834Z,101595.00
2022-09-09T05:45:15.263Z,101592.50
2022-09-09T05:47:41.562Z,101591.72
2022-09-09T05:50:08.618Z,101595.09
2022-09-09T05:52:34.934Z,101587.59
2022-09-09T05:55:01.259Z,101582.38
2022-09-09T05:57:27.621Z,101583.16
2022-09-09T05:59:54.610Z,101586.34
2022-09-09T06:02:21.049Z,101578.34
2022-09-09T06:04:47.766Z,101579.59
2022-09-09T06:07:15.542Z,101583.25
2022-09-09T06:09:42.369Z,101577.69
2022-09-09T06:12:08.702Z,101579.38
2022-09-09T06:14:35.128Z,101587.50
2022-09-09T06:17:01.429Z,101590.31
2022-09-09T06:19:27.935Z,101587.19
2022-09-09T06:21:54.496Z,101584.41
2022-09-09T06:24:21.035Z,101593.59
2022-09-09T06:26:47.504Z,101592.69
2022-09-09T06:29:22.056Z,101576.53
2022-09-09T06:31:48.765Z,101577.13
2022-09-09T06:34:15.247Z,101574.75
2022-09-09T06:36:41.630Z,101584.38
2022-09-09T06:39:14.202Z,101583.28
2022-09-09T06:41:41.953Z,101577.19
2022-09-09T06:44:08.289Z,101575.03
2022-09-09T06:46:42.272Z,101574.66
2022-09-09T06:49:09.358Z,101575.44
2022-09-09T06:51:36.900Z,101579.31
2022-09-09T06:54:04.244Z,101580.41
2022-09-09T06:56:34.221Z,101567.38
2022-09-09T06:59:04.818Z,101569.25
2022-09-09T07:01:32.709Z,101566.50
2022-09-09T07:04:00.071Z,101564.47
2022-09-09T07:06:28.147Z,101567.78
2022-09-09T07:08:56.761Z,101554.31
2022-09-09T07:11:24.272Z,101567.16
2022-09-09T07:13:50.691Z,101554.97
2022-09-09T07:16:18.268Z,101555.06
2022-09-09T07:18:45.241Z,101547.03
2022-09-09T07:21:12.942Z,101539.00
2022-09-09T07:23:39.866Z,101555.59
2022-09-09T07:26:10.695Z,101541.19
2022-09-09T07:28:37.328Z,101542.47
2022-09-09T07:31:04.221Z,101540.50
2022-09-09T07:33:31.715Z,101528.41
2022-09-09T07:36:07.982Z,101532.75
2022-09-09T07:38:39.050Z,101525.84
2022-09-09T07:41:06.622Z,101522.97
2022-09-09T07:43:34.217Z,101523.31
2022-09-09T07:46:02.421Z,101518.25
2022-09-09T07:48:32.284Z,101511.78
2022-09-09T07:51:09.984Z,101500.66
2022-09-09T07:53:37.431Z,101486.63
2022-09-09T07:56:08.467Z,101481.06
2022-09-09T07:58:38.248Z,101479.00
2022-09-09T08:01:12.397Z,101469.13
2022-09-09T08:03:39.183Z,101451.16
2022-09-09T08:06:07.152Z,101447.88
2022-09-09T08:08:34.151Z,101443.38
2022-09-09T08:11:04.758Z,101428.75
2022-09-09T08:13:32.457Z,101418.84
2022-09-09T08:16:08.084Z,101397.84
2022-09-09T08:18:34.474Z,101392.47
2022-09-09T08:21:28.872Z,101370.66
2022-09-09T08:23:58.127Z,101354.47
2022-09-09T08:26:32.532Z,101342.00
2022-09-09T08:28:59.942Z,101317.97
2022-09-09T08:31:29.091Z,101303.50
2022-09-09T08:33:55.894Z,101284.28
2022-09-09T08:36:23.198Z,101269.00
2022-09-09T08:38:51.283Z,101254.19
2022-09-09T08:41:17.630Z,101236.81
2022-09-09T08:43:46.722Z,101218.69
2022-09-09T08:46:21.299Z,101197.25
2022-09-09T08:48:49.921Z,101186.28
2022-09-09T08:51:16.653Z,101169.16
2022-09-09T08:53:49.166Z,101167.13
2022-09-09T08:56:19.209Z,101152.41
2022-09-09T08:58:53.547Z,101146.13
2022-09-09T09:01:20.063Z,101137.38
2022-09-09T09:03:58.990Z,101116.88
2022-09-09T09:06:40.462Z,101114.66
2022-09-09T09:09:09.503Z,101100.13
2022-09-09T09:11:39.657Z,101102.78
2022-09-09T09:14:08.778Z,101105.28
2022-09-09T09:16:51.756Z,101098.59
2022-09-09T09:19:18.998Z,101085.88
2022-09-09T09:21:50.681Z,101092.31
2022-09-09T09:24:22.279Z,101074.16
2022-09-09T09:26:48.712Z,101064.06
2022-09-09T09:29:17.313Z,101075.44
2022-09-09T09:31:48.907Z,101032.31
2022-09-09T09:34:15.347Z,101031.22
2022-09-09T09:36:45.490Z,101018.09
2022-09-09T09:41:58.691Z,100979.69
2022-09-09T09:44:29.474Z,100969.25
2022-09-09T09:47:09.153Z,100968.25
2022-09-09T09:49:35.574Z,100960.22
2022-09-09T09:52:03.269Z,100948.50
2022-09-09T09:54:30.808Z,100945.28
2022-09-09T09:56:58.407Z,100943.03
2022-09-09T09:59:41.623Z,100936.44
2022-09-09T10:02:13.837Z,100938.88
2022-09-09T10:04:40.292Z,100931.50
2022-09-09T10:07:14.007Z,100932.38
2022-09-09T10:09:41.717Z,100926.91
2022-09-09T10:12:08.027Z,100919.06
2022-09-09T10:14:34.531Z,100911.28
2022-09-09T10:17:28.174Z,100923.72
2022-09-09T10:20:14.771Z,100919.69
2022-09-09T10:22:46.365Z,100916.56
2022-09-09T10:25:15.909Z,100909.59
2022-09-09T10:28:06.442Z,100906.00
2022-09-09T10:30:56.325Z,100892.69
2022-09-09T10:33:34.609Z,100899.81
2022-09-09T10:36:09.481Z,100904.25
2022-09-09T10:38:35.801Z,100895.84
2022-09-09T10:41:12.047Z,100896.88
2022-09-09T10:43:58.489Z,100891.69
2022-09-09T10:46:47.259Z,100892.66
2022-09-09T10:49:22.978Z,100894.34
2022-09-09T10:52:01.132Z,100893.47
2022-09-09T10:54:40.832Z,100880.53
2022-09-09T10:57:14.804Z,100861.16
2022-09-09T10:59:48.583Z,100861.91
2022-09-09T11:02:16.106Z,100856.94
2022-09-09T11:04:45.004Z,100893.53
2022-09-09T11:07:13.211Z,100906.63
2022-09-09T11:09:46.032Z,100925.53
2022-09-09T11:12:16.612Z,100929.28
2022-09-09T11:14:49.572Z,100942.88
2022-09-09T11:17:21.817Z,100943.19
2022-09-09T11:19:48.494Z,100934.75
2022-09-09T11:22:33.444Z,100938.25
2022-09-09T11:25:01.093Z,100931.44
2022-09-09T11:27:41.975Z,100923.38
2022-09-09T11:30:17.462Z,100923.34
2022-09-09T11:32:51.075Z,101037.41
2022-09-09T11:35:28.074Z,101136.31
2022-09-09T11:38:03.603Z,101127.28
2022-09-09T11:40:31.451Z,101127.78
2022-09-09T11:43:15.143Z,101075.91
2022-09-09T11:45:42.968Z,101023.88
2022-09-09T11:48:27.728Z,101017.97
2022-09-09T11:51:01.823Z,101072.06
2022-09-09T11:53:28.537Z,101075.34
2022-09-09T11:56:02.507Z,101001.59
2022-09-09T11:58:56.770Z,101037.94
2022-09-09T12:01:38.416Z,100942.81
2022-09-09T12:04:17.429Z,100856.00
2022-09-09T12:06:50.371Z,100895.91
2022-09-09T12:09:24.277Z,100850.47
2022-09-09T12:11:51.513Z,100762.19
2022-09-09T12:14:37.234Z,100691.09
2022-09-09T12:17:12.905Z,100779.75
2022-09-09T12:19:39.258Z,100812.31
2022-09-09T12:22:12.212Z,100957.25
2022-09-09T12:24:45.580Z,100947.28
2022-09-09T12:27:19.140Z,100931.28
2022-09-09T12:29:54.225Z,100946.13
2022-09-09T12:32:25.307Z,101012.53
2022-09-09T12:34:58.067Z,101058.03
2022-09-09T12:37:30.585Z,100990.88
2022-09-09T12:40:01.504Z,100906.59
2022-09-09T12:42:29.028Z,100841.38
2022-09-09T12:44:57.522Z,100840.91
2022-09-09T12:47:41.794Z,100876.22
2022-09-09T12:50:18.628Z,100768.72
2022-09-09T12:52:46.701Z,100745.22
2022-09-09T12:55:17.653Z,100654.81
2022-09-09T12:57:44.270Z,100612.53
2022-09-09T13:00:21.587Z,100589.72
2022-09-09T13:02:55.939Z,100536.31
2022-09-09T13:05:23.878Z,100408.16
2022-09-09T13:07:50.430Z,100478.78
2022-09-09T13:10:36.743Z,100421.53
2022-09-09T13:13:21.990Z,100474.22
2022-09-09T13:15:56.261Z,100630.63
2022-09-09T13:18:24.254Z,100559.47
2022-09-09T13:20:51.074Z,100385.88
2022-09-09T13:23:20.648Z,100563.84
2022-09-09T13:26:00.750Z,100779.50
2022-09-09T13:28:28.798Z,100853.97
2022-09-09T13:31:05.739Z,100878.81
2022-09-09T13:33:34.211Z,100819.44
2022-09-09T13:36:03.717Z,100738.34
2022-09-09T13:38:31.616Z,100535.03
2022-09-09T13:41:05.477Z,100476.72
2022-09-09T13:43:36.567Z,100407.00
2022-09-09T13:46:05.954Z,100411.03
2022-09-09T13:48:32.837Z,100373.84
2022-09-09T13:51:05.962Z,100284.09
2022-09-09T13:53:32.387Z,100264.25
2022-09-09T13:55:59.235Z,100270.59
2022-09-09T13:58:26.208Z,100305.56
2022-09-09T14:00:53.481Z,100422.75
2022-09-09T14:03:20.719Z,100575.22
2022-09-09T14:05:47.482Z,100543.91
2022-09-09T14:08:25.134Z,100671.13
2022-09-09T14:10:53.384Z,100766.75
2022-09-09T14:13:19.998Z,100543.34
2022-09-09T14:15:46.364Z,100446.94
2022-09-09T14:18:13.414Z,100319.47
2022-09-09T14:20:40.124Z,100295.78
2022-09-09T14:23:06.633Z,100397.88
2022-09-09T14:25:33.290Z,100439.47
2022-09-09T14:28:03.199Z,100445.19
2022-09-09T14:30:29.697Z,100695.97
2022-09-09T14:32:56.404Z,100580.81
2022-09-09T14:35:23.159Z,100386.97
2022-09-09T14:37:49.734Z,100292.34
2022-09-09T14:40:16.256Z,100231.63
2022-09-09T14:42:42.605Z,100189.56
2022-09-09T14:45:09.177Z,100359.03
2022-09-09T14:47:35.486Z,100622.88
2022-09-09T14:50:03.905Z,100803.31
2022-09-09T14:52:30.950Z,100911.41
2022-09-09T14:54:57.964Z,101084.50
2022-09-09T14:57:24.274Z,101154.59
2022-09-09T14:59:51.306Z,101164.28
2022-09-09T15:02:18.070Z,101149.56
2022-09-09T15:04:45.374Z,101100.94
2022-09-09T15:07:11.863Z,101038.66
2022-09-09T15:09:38.232Z,100996.13
2022-09-09T15:12:05.575Z,100965.88
2022-09-09T15:14:32.040Z,100876.69
2022-09-09T15:16:58.470Z,100885.16
2022-09-09T15:19:24.941Z,100867.06
2022-09-09T15:21:51.430Z,100872.28
2022-09-09T15:24:18.013Z,100849.41
2022-09-09T15:26:44.387Z,100902.88
2022-09-09T15:29:10.746Z,100928.03
2022-09-09T15:31:37.201Z,100951.47
2022-09-09T15:34:07.399Z,100956.44
2022-09-09T15:36:33.729Z,100974.72
2022-09-09T15:39:00.636Z,101008.50
2022-09-09T15:41:27.749Z,101012.06
2022-09-09T15:43:57.515Z,101040.72
2022-09-09T15:46:28.744Z,101049.75
2022-09-09T15:48:56.373Z,101074.22
2022-09-09T15:51:41.689Z,101102.63
2022-09-09T15:54:09.609Z,101149.53
2022-09-09T15:56:35.926Z,101182.66
2022-09-09T15:59:03.914Z,101202.75
2022-09-09T16:01:31.329Z,101246.72
2022-09-09T16:03:58.294Z,101282.81
2022-09-09T16:06:25.438Z,101328.13
2022-09-09T16:08:53.240Z,101378.13
2022-09-09T16:11:21.329Z,101404.16
2022-09-09T16:13:51.209Z,101421.28
2022-09-09T16:16:20.259Z,101440.47
2022-09-09T16:18:47.770Z,101452.47
2022-09-09T16:21:17.566Z,101465.19
2022-09-09T16:23:44.867Z,101480.91
2022-09-09T16:26:12.000Z,101504.84
2022-09-09T16:28:38.370Z,101541.00
2022-09-09T16:31:05.481Z,101549.09
2022-09-09T16:33:32.513Z,101554.25
2022-09-09T16:35:59.915Z,101563.78
2022-09-09T16:38:26.377Z,101574.75
2022-09-09T16:40:52.731Z,101567.53
2022-09-09T16:43:19.043Z,101580.03
2022-09-09T16:45:46.197Z,101583.56
2022-09-09T16:48:12.954Z,101587.34
2022-09-09T16:50:40.155Z,101582.97
2022-09-09T16:53:09.571Z,101587.34
2022-09-09T16:55:40.203Z,101586.41
2022-09-09T16:58:06.528Z,101595.94
2022-09-09T17:00:32.868Z,101591.56
2022-09-09T17:02:59.864Z,101594.44
2022-09-09T17:05:26.253Z,101597.38
2022-09-09T17:07:52.815Z,101598.63
2022-09-09T17:10:19.173Z,101612.78
2022-09-09T17:12:46.985Z,101620.78
2022-09-09T17:15:13.297Z,101618.97
2022-09-09T17:17:39.987Z,101631.53
2022-09-09T17:20:08.038Z,101626.88
2022-09-09T17:22:34.367Z,101635.84
2022-09-09T17:25:01.016Z,101651.13
2022-09-09T17:27:27.310Z,101647.69
2022-09-09T17:29:53.945Z,101638.72
2022-09-09T17:32:20.336Z,101645.22
2022-09-09T17:34:46.869Z,101638.25
2022-09-09T17:37:14.106Z,101640.28
2022-09-09T17:39:40.843Z,101637.06
2022-09-09T17:42:08.482Z,101625.81
2022-09-09T17:44:35.898Z,101618.00
2022-09-09T17:47:04.691Z,101625.03
2022-09-09T17:49:31.089Z,101623.34
2022-09-09T17:51:57.496Z,101622.19
2022-09-09T17:54:23.975Z,101627.53
2022-09-09T17:56:50.396Z,101626.78
2022-09-09T17:59:17.830Z,101630.19
2022-09-09T18:01:45.969Z,101626.41
2022-09-09T18:04:16.367Z,101622.81
2022-09-09T18:06:44.356Z,101623.38
2022-09-09T18:09:13.277Z,101610.50
2022-09-09T18:11:43.019Z,101612.59
2022-09-09T18:14:10.870Z,101621.78
2022-09-09T18:16:37.770Z,101615.28
2022-09-09T18:19:05.406Z,101625.50
2022-09-09T18:21:33.139Z,101623.41
2022-09-09T18:24:00.519Z,101636.56
2022-09-09T18:26:27.513Z,101625.31
2022-09-09T18:28:57.954Z,101635.50
2022-09-09T18:31:27.067Z,101640.38
2022-09-09T18:33:53.729Z,101645.91
2022-09-09T18:36:22.112Z,101639.22
2022-09-09T18:38:48.793Z,101646.56
2022-09-09T18:41:26.630Z,101660.75
2022-09-09T18:43:55.026Z,101659.38
2022-09-09T18:46:22.253Z,101674.44
2022-09-09T18:48:50.368Z,101679.06
2022-09-09T18:51:17.817Z,101682.84
2022-09-09T18:53:44.834Z,101688.28
2022-09-09T18:56:12.490Z,101691.44
2022-09-09T18:58:40.204Z,101705.69
2022-09-09T19:01:09.922Z,101717.56
2022-09-09T19:03:37.868Z,101718.59
2022-09-09T19:06:09.600Z,101730.38
2022-09-09T19:08:39.503Z,101740.56
2022-09-09T19:11:07.381Z,101751.13
2022-09-09T19:13:34.419Z,101762.03
2022-09-09T19:16:07.774Z,101768.81
2022-09-09T19:18:34.607Z,101783.94
2022-09-09T19:21:11.744Z,101812.00
2022-09-09T19:23:38.968Z,101831.06
2022-09-09T19:26:08.408Z,101815.88
2022-09-09T19:28:35.538Z,101805.97
2022-09-09T19:31:06.253Z,101807.66
2022-09-09T19:33:33.362Z,101803.28
2022-09-09T19:36:02.358Z,101805.00
2022-09-09T19:38:29.711Z,101793.94
2022-09-09T19:40:56.853Z,101800.97
2022-09-09T19:43:24.645Z,101788.94
2022-09-09T19:46:03.978Z,101797.22
2022-09-09T19:48:31.859Z,101774.34
2022-09-09T19:51:04.350Z,101775.94
2022-09-09T19:53:36.314Z,101783.28
2022-09-09T19:56:05.816Z,101813.00
2022-09-09T19:58:34.451Z,101816.81
2022-09-09T20:01:12.174Z,101797.22
2022-09-09T20:03:39.959Z,101794.81
2022-09-09T20:06:06.990Z,101768.16
2022-09-09T20:08:33.707Z,101753.97
2022-09-09T20:11:01.261Z,101737.81
2022-09-09T20:13:29.441Z,101729.66
2022-09-09T20:16:12.985Z,101722.97
2022-09-09T20:18:41.017Z,101701.09
2022-09-09T20:21:10.083Z,101709.88
2022-09-09T20:23:37.462Z,101706.78
2022-09-09T20:26:06.651Z,101688.63
2022-09-09T20:28:35.603Z,101668.75
2022-09-09T20:31:06.704Z,101661.81
2022-09-09T20:33:33.937Z,101659.03
2022-09-09T20:36:05.161Z,101651.41
2022-09-09T20:40:40.004Z,101660.72
2022-09-09T20:43:06.526Z,101654.53
2022-09-09T20:45:38.003Z,101652.63
2022-09-09T20:48:05.839Z,101645.44
2022-09-09T20:50:35.220Z,101650.06
2022-09-09T20:53:01.946Z,101654.34
2022-09-09T20:55:30.749Z,101643.19
2022-09-09T20:57:58.410Z,101643.75
2022-09-09T21:00:24.863Z,101641.59
2022-09-09T21:02:51.626Z,101641.50
2022-09-09T21:05:23.410Z,101634.44
2022-09-09T21:07:50.595Z,101627.41
2022-09-09T21:10:18.171Z,101632.91
2022-09-09T21:12:45.111Z,101628.09
2022-09-09T21:15:11.898Z,101641.34
2022-09-09T21:17:40.179Z,101642.78
2022-09-09T21:20:06.869Z,101649.06
2022-09-09T21:22:33.275Z,101651.16
2022-09-09T21:24:59.707Z,101652.84
2022-09-09T21:27:26.118Z,101643.91
2022-09-09T21:29:52.648Z,101655.59
2022-09-09T21:32:19.184Z,101661.97
2022-09-09T21:34:45.812Z,101666.78
2022-09-09T21:37:12.230Z,101662.06
2022-09-09T21:39:38.761Z,101670.41
2022-09-09T21:42:05.409Z,101668.16
2022-09-09T21:44:31.819Z,101669.53
2022-09-09T21:46:58.227Z,101680.19
2022-09-09T21:49:24.667Z,101697.88
2022-09-09T21:51:51.067Z,101709.03
2022-09-09T21:54:18.903Z,101711.59
2022-09-09T21:56:45.392Z,101722.47
2022-09-09T21:59:12.099Z,101715.81
2022-09-09T22:01:40.260Z,101715.91
2022-09-09T22:04:06.775Z,101709.53
2022-09-09T22:06:33.755Z,101721.94
2022-09-09T22:09:01.705Z,101738.56
2022-09-09T22:11:29.751Z,101744.94
2022-09-09T22:13:56.247Z,101752.25
2022-09-09T22:16:23.914Z,101755.88
2022-09-09T22:18:56.836Z,101754.88
2022-09-09T22:21:24.183Z,101763.59
2022-09-09T22:23:59.493Z,101767.47
2022-09-09T22:26:28.819Z,101771.31
2022-09-09T22:28:57.292Z,101777.59
2022-09-09T22:31:25.433Z,101772.09
2022-09-09T22:33:52.115Z,101776.56
2022-09-09T22:36:20.282Z,101782.81
2022-09-09T22:38:50.624Z,101775.19
2022-09-09T22:41:18.670Z,101776.94
2022-09-09T22:43:46.102Z,101788.94
2022-09-09T22:46:13.608Z,101792.88
2022-09-09T22:48:40.221Z,101789.59
2022-09-09T22:51:09.135Z,102872.44
2022-09-09T22:53:36.091Z,102912.41
2022-09-09T22:56:05.954Z,102993.00
2022-09-09T22:58:34.437Z,102975.66
2022-09-09T23:01:06.906Z,103042.00
2022-09-09T23:03:33.470Z,103104.25
2022-09-09T23:06:01.830Z,103153.78
2022-09-09T23:08:33.421Z,103201.28
2022-09-09T23:11:11.618Z,103254.66
2022-09-09T23:13:40.894Z,103344.09
2022-09-09T23:16:22.239Z,103346.59
2022-09-09T23:18:48.847Z,103406.13
2022-09-09T23:21:15.954Z,103444.38
2022-09-09T23:23:45.391Z,103511.00
2022-09-09T23:26:20.738Z,103614.91
2022-09-09T23:28:49.075Z,103734.31
2022-09-09T23:31:16.481Z,103821.44
2022-09-09T23:33:43.534Z,103904.06
2022-09-09T23:36:19.918Z,104005.31
2022-09-09T23:38:47.365Z,104055.97
2022-09-09T23:41:20.970Z,104116.16
2022-09-09T23:43:48.711Z,104137.28
2022-09-09T23:46:17.184Z,104164.56
2022-09-09T23:48:43.875Z,104170.84
2022-09-09T23:51:17.338Z,104178.09
2022-09-09T23:53:45.570Z,104196.72
2022-09-09T23:56:12.597Z,104200.19
2022-09-09T23:58:39.299Z,104233.00
